Time;durP1;ratioP1;P1;durP2;ratioP2;P2;SDS_P1;SDS_P2;PMS_P1;PMS_P2;Temp;Humidity;BMP_temperature;BMP_pressure;BME280_temperature;BME280_humidity;BME280_pressure;Samples;Min_cycle;Max_cycle;Signal;HPM_P1;HPM_P2
2021/11/19 00:01:10;;;;;;;0.20;0.20;;;;;;;14.56;67.60;102914.69;5004465;28;20405;-87
2021/11/19 00:03:37;;;;;;;0.20;0.20;;;;;;;14.57;67.91;102920.94;5005765;28;20390;-84
2021/11/19 00:06:03;;;;;;;0.17;0.17;;;;;;;14.56;67.46;102920.03;5007688;28;20034;-83
2021/11/19 00:08:32;;;;;;;10.98;2.08;;;;;;;14.60;67.81;102914.69;5006695;28;20044;-84
2021/11/19 00:11:01;;;;;;;0.38;0.38;;;;;;;14.56;67.54;102922.69;5007401;28;20367;-84
2021/11/19 00:13:28;;;;;;;3.95;1.52;;;;;;;14.59;67.45;102913.78;5008198;28;20469;-84
2021/11/19 00:15:56;;;;;;;0.10;0.10;;;;;;;14.64;67.41;102922.69;5004543;28;20393;-84
2021/11/19 00:18:24;;;;;;;0.20;0.20;;;;;;;14.56;67.67;102921.81;4988761;28;20049;-84
2021/11/19 00:20:50;;;;;;;0.35;0.35;;;;;;;14.62;67.51;102927.16;5005357;28;20030;-85
2021/11/19 00:23:17;;;;;;;0.43;0.43;;;;;;;14.66;67.46;102920.06;5004627;28;20112;-84
2021/11/19 00:25:44;;;;;;;0.88;0.75;;;;;;;14.65;67.44;102921.81;5007206;28;20037;-84
2021/11/19 00:28:11;;;;;;;0.20;0.20;;;;;;;14.68;67.39;102926.28;5003585;28;20037;-83
2021/11/19 00:30:39;;;;;;;0.80;0.80;;;;;;;14.68;67.47;102915.59;5003363;28;20525;-84
2021/11/19 00:33:08;;;;;;;0.82;0.75;;;;;;;14.71;67.41;102920.91;5003177;28;20048;-82
2021/11/19 00:35:37;;;;;;;0.30;0.30;;;;;;;14.66;67.59;102925.38;5005533;28;20030;-84
2021/11/19 00:38:06;;;;;;;0.77;0.77;;;;;;;14.71;67.41;102928.91;5000976;28;20487;-83
2021/11/19 00:40:37;;;;;;;0.20;0.20;;;;;;;14.77;67.27;102930.69;5006099;28;20099;-85
2021/11/19 00:43:04;;;;;;;0.35;0.35;;;;;;;14.74;67.12;102936.03;5005815;28;20057;-84
2021/11/19 00:45:31;;;;;;;1.10;1.00;;;;;;;14.79;67.06;102943.13;5004771;28;20100;-84
2021/11/19 00:47:58;;;;;;;0.10;0.10;;;;;;;14.82;67.03;102940.44;5003511;28;20439;-83
2021/11/19 00:50:29;;;;;;;0.40;0.40;;;;;;;14.79;67.09;102931.56;5007918;28;20057;-83
2021/11/19 00:52:56;;;;;;;0.10;0.10;;;;;;;14.76;67.13;102937.78;5007277;28;20484;-84
2021/11/19 00:55:24;;;;;;;0.40;0.30;;;;;;;14.70;67.36;102927.13;5004347;28;20031;-83
2021/11/19 00:57:50;;;;;;;0.20;0.20;;;;;;;14.71;67.27;102926.25;5006947;28;20408;-83
2021/11/19 01:00:22;;;;;;;0.30;0.30;;;;;;;14.72;67.31;102934.25;5003843;28;20037;-83
2021/11/19 01:02:49;;;;;;;0.10;0.10;;;;;;;14.72;67.26;102933.38;5003579;28;20049;-83
2021/11/19 01:05:15;;;;;;;0.30;0.30;;;;;;;14.71;67.13;102920.91;5008286;28;20029;-85
2021/11/19 01:07:42;;;;;;;43.65;1.73;;;;;;;14.66;67.44;102922.72;5011369;28;20073;-83
2021/11/19 01:10:13;;;;;;;0.43;0.43;;;;;;;14.65;67.16;102921.81;5009447;28;20117;-84
2021/11/19 01:12:40;;;;;;;0.05;0.05;;;;;;;14.66;67.30;102928.94;4998600;28;20283;-84
2021/11/19 01:17:54;;;;;;;0.22;0.22;;;;;;;14.71;67.06;102927.13;5014044;28;20786;-85
2021/11/19 01:23:01;;;;;;;0.90;0.90;;;;;;;14.69;67.26;102928.03;5064694;28;20409;-85
2021/11/19 01:25:31;;;;;;;0.65;0.65;;;;;;;14.71;67.17;102920.91;5038390;28;20036;-84
2021/11/19 01:27:58;;;;;;;0.25;0.25;;;;;;;14.69;67.07;102917.34;5028144;28;20029;-85
2021/11/19 01:30:30;;;;;;;1.48;1.38;;;;;;;14.71;67.34;102916.44;5025857;28;20042;-84
2021/11/19 01:32:56;;;;;;;1.02;1.02;;;;;;;14.71;67.35;102918.25;5021549;28;20026;-85
2021/11/19 01:35:25;;;;;;;1.20;0.40;;;;;;;14.69;67.65;102914.69;5015860;28;20038;-84
2021/11/19 01:37:51;;;;;;;0.10;0.10;;;;;;;14.72;67.35;102917.34;5028622;28;20039;-84
2021/11/19 01:40:22;;;;;;;0.10;0.10;;;;;;;14.71;67.38;102911.13;5027687;28;20033;-86
2021/11/19 01:42:52;;;;;;;0.68;0.68;;;;;;;14.78;67.14;102922.66;5027234;28;20033;-85
2021/11/19 01:45:31;;;;;;;1.13;0.65;;;;;;;14.72;67.57;102917.34;5028084;28;20109;-85
2021/11/19 01:47:58;;;;;;;1.70;1.45;;;;;;;14.69;67.55;102922.69;5027989;28;20030;-83
2021/11/19 01:50:34;;;;;;;0.98;0.98;;;;;;;14.77;67.33;102920.00;5027023;28;20030;-84
2021/11/19 01:56:03;;;;;;;0.57;0.57;;;;;;;14.79;67.15;102918.22;5077339;27;20414;-85
2021/11/19 01:58:38;;;;;;;0.10;0.10;;;;;;;14.75;67.48;102911.13;5036314;28;20041;-84
2021/11/19 02:01:09;;;;;;;0.15;0.15;;;;;;;14.77;67.46;102915.56;5035818;28;20113;-84
2021/11/19 02:03:40;;;;;;;0.35;0.35;;;;;;;14.78;67.30;102917.34;5037786;28;20038;-84
2021/11/19 02:08:51;;;;;;;0.25;0.25;;;;;;;14.76;67.27;102919.09;5076977;27;20951;-84
2021/11/19 02:11:51;;;;;;;1.65;1.55;;;;;;;14.82;67.32;102918.22;5066053;28;20033;-83
2021/11/19 02:17:16;;;;;;;1.40;0.95;;;;;;;14.81;67.38;102916.44;5138323;27;20181;-84
2021/11/19 02:19:49;;;;;;;0.10;0.10;;;;;;;14.78;67.58;102912.00;5108615;28;20024;-85
2021/11/19 02:22:20;;;;;;;0.20;0.20;;;;;;;14.82;67.28;102912.88;5107359;28;20050;-83
2021/11/19 02:25:08;;;;;;;0.40;0.40;;;;;;;14.84;67.27;102914.63;5103001;28;20031;-84
2021/11/19 02:27:49;;;;;;;1.67;1.58;;;;;;;14.89;66.98;102917.25;5102871;28;20028;-85
2021/11/19 02:30:43;;;;;;;0.10;0.10;;;;;;;14.94;66.97;102917.25;5105735;28;20131;-85
2021/11/19 02:33:12;;;;;;;0.32;0.32;;;;;;;14.84;67.05;102905.72;5106472;28;20035;-83
2021/11/19 02:35:49;;;;;;;1.55;0.70;;;;;;;14.83;67.19;102904.84;5103051;28;20093;-84
2021/11/19 02:38:16;;;;;;;1.42;0.93;;;;;;;14.76;67.68;102903.09;5109328;28;20103;-83
2021/11/19 02:40:44;;;;;;;0.20;0.20;;;;;;;14.81;67.49;102901.28;5105289;27;20502;-84
2021/11/19 02:43:20;;;;;;;0.10;0.10;;;;;;;14.83;67.47;102899.50;5100323;28;20040;-85
2021/11/19 02:45:49;;;;;;;0.10;0.10;;;;;;;14.82;67.53;102902.19;5104071;27;20406;-85
2021/11/19 02:48:21;;;;;;;0.10;0.10;;;;;;;14.87;67.32;102892.38;5110897;28;20481;-84
2021/11/19 02:50:50;;;;;;;0.40;0.28;;;;;;;14.86;67.47;102896.81;5100678;28;20134;-84
2021/11/19 02:53:17;;;;;;;0.20;0.20;;;;;;;14.78;67.74;102892.41;5100849;28;20039;-84
2021/11/19 02:55:49;;;;;;;0.20;0.20;;;;;;;14.75;67.74;102889.78;5114358;28;21358;-84
2021/11/19 02:58:21;;;;;;;0.10;0.10;;;;;;;14.80;67.65;102893.31;5104796;27;20759;-84
2021/11/19 03:03:38;;;;;;;0.10;0.10;;;;;;;14.81;67.79;102887.94;5077399;27;20403;-85
2021/11/19 03:06:05;;;;;;;0.77;0.77;;;;;;;14.74;67.97;102891.53;5066136;28;20388;-84
2021/11/19 03:08:33;;;;;;;1.23;1.08;;;;;;;14.76;67.99;102889.75;5035953;28;20237;-85
2021/11/19 03:11:03;;;;;;;0.10;0.10;;;;;;;14.71;68.65;102888.91;5039703;28;20385;-85
2021/11/19 03:13:33;;;;;;;0.20;0.20;;;;;;;14.72;68.04;102886.22;5040792;28;20067;-84
2021/11/19 03:15:59;;;;;;;0.73;0.73;;;;;;;14.76;67.75;102887.09;5036085;28;20026;-85
2021/11/19 03:18:27;;;;;;;0.95;0.95;;;;;;;14.66;68.64;102886.25;5039971;28;20033;-85
2021/11/19 03:20:58;;;;;;;0.08;0.08;;;;;;;14.75;68.19;102879.97;5035830;28;20132;-84
2021/11/19 03:23:26;;;;;;;0.20;0.20;;;;;;;14.73;68.24;102881.78;5036885;28;20035;-83
2021/11/19 03:25:53;;;;;;;0.10;0.10;;;;;;;14.73;68.23;102879.13;5037725;28;20033;-84
2021/11/19 03:28:23;;;;;;;1.48;1.38;;;;;;;14.78;68.05;102877.31;5036732;28;20051;-85
2021/11/19 03:30:52;;;;;;;0.63;0.63;;;;;;;14.83;67.97;102886.16;5034984;28;20048;-85
2021/11/19 03:33:23;;;;;;;0.32;0.32;;;;;;;14.78;68.21;102890.66;5032229;28;20030;-88
2021/11/19 03:35:51;;;;;;;0.40;0.40;;;;;;;14.78;68.37;102885.31;5033382;28;20033;-86
2021/11/19 03:38:19;;;;;;;0.20;0.20;;;;;;;14.84;68.18;102890.63;5019219;28;20054;-85
2021/11/19 03:40:48;;;;;;;0.47;0.47;;;;;;;14.81;68.22;102890.63;5031858;28;20040;-85
2021/11/19 03:43:18;;;;;;;0.25;0.25;;;;;;;14.78;68.35;102885.31;5035270;28;20116;-85
2021/11/19 03:45:49;;;;;;;0.10;0.10;;;;;;;14.78;68.77;102885.31;5034013;28;20117;-85
2021/11/19 03:48:28;;;;;;;0.30;0.30;;;;;;;14.79;68.62;102889.75;5036446;28;20117;-84
2021/11/19 03:51:09;;;;;;;0.43;0.43;;;;;;;14.85;68.80;102897.75;5037211;28;20044;-85
2021/11/19 03:53:46;;;;;;;0.10;0.10;;;;;;;14.89;68.25;102893.25;5039044;28;20021;-86
2021/11/19 03:56:15;;;;;;;0.55;0.50;;;;;;;14.93;68.07;102891.44;5040158;28;20476;-84
2021/11/19 03:58:44;;;;;;;0.10;0.10;;;;;;;14.89;68.16;102893.25;5035903;28;20107;-84
2021/11/19 04:01:16;;;;;;;0.28;0.28;;;;;;;14.94;68.07;102895.91;5034997;28;20115;-84
2021/11/19 04:03:44;;;;;;;0.57;0.57;;;;;;;14.95;68.14;102895.00;5034584;28;20030;-84
2021/11/19 04:06:11;;;;;;;0.25;0.25;;;;;;;14.95;68.20;102892.34;5033323;28;20033;-84
2021/11/19 04:08:37;;;;;;;0.13;0.13;;;;;;;14.97;68.11;102895.91;5044153;28;20145;-84
2021/11/19 04:11:07;;;;;;;8.13;1.35;;;;;;;15.06;68.03;102901.16;5041443;28;20171;-85
2021/11/19 04:13:33;;;;;;;0.20;0.20;;;;;;;14.99;68.44;102902.09;5032102;28;20045;-85
2021/11/19 04:16:04;;;;;;;1.38;0.55;;;;;;;15.00;68.22;102902.09;5025460;28;20034;-86
2021/11/19 04:18:30;;;;;;;0.10;0.10;;;;;;;15.03;68.09;102902.06;5022327;28;20060;-84
2021/11/19 04:20:58;;;;;;;0.40;0.40;;;;;;;15.07;68.07;102896.72;5020430;28;20030;-85
2021/11/19 04:23:25;;;;;;;4.07;1.15;;;;;;;15.11;67.89;102904.69;5026585;28;20400;-84
2021/11/19 04:25:54;;;;;;;0.25;0.25;;;;;;;15.10;68.00;102905.56;5026483;28;20032;-85
2021/11/19 04:28:21;;;;;;;0.45;0.45;;;;;;;15.08;68.09;102910.06;5029263;28;20056;-85
2021/11/19 04:30:50;;;;;;;0.10;0.10;;;;;;;15.16;67.63;102904.66;5034416;28;20030;-85
2021/11/19 04:33:18;;;;;;;0.20;0.20;;;;;;;15.14;67.74;102907.34;5025908;28;20041;-85
2021/11/19 04:35:46;;;;;;;2.90;1.02;;;;;;;15.18;67.71;102910.91;5025020;28;20549;-85
2021/11/19 04:38:14;;;;;;;0.20;0.20;;;;;;;15.18;67.66;102916.25;5021112;28;20087;-85
2021/11/19 04:40:41;;;;;;;0.40;0.40;;;;;;;15.22;67.49;102914.44;5024526;28;20403;-85
2021/11/19 04:43:07;;;;;;;0.38;0.38;;;;;;;15.17;67.87;102899.31;5028761;28;20069;-85
2021/11/19 04:45:34;;;;;;;0.03;0.03;;;;;;;15.23;67.71;102908.19;5033817;28;20025;-86
2021/11/19 04:48:02;;;;;;;1.05;0.98;;;;;;;15.22;67.77;102906.44;5037170;28;20033;-86
2021/11/19 04:50:32;;;;;;;1.55;1.45;;;;;;;15.25;67.71;102903.72;5031813;28;20071;-85
2021/11/19 04:52:58;;;;;;;0.20;0.20;;;;;;;15.18;67.93;102906.44;5023825;28;20033;-86
2021/11/19 04:55:26;;;;;;;0.15;0.15;;;;;;;15.25;67.79;102911.72;5024230;28;20042;-87
2021/11/19 04:57:55;;;;;;;0.00;0.00;;;;;;;15.27;67.84;102912.63;5023058;28;20021;-86
2021/11/19 05:00:37;;;;;;;0.10;0.10;;;;;;;15.25;68.04;102909.06;5023426;28;20063;-83
2021/11/19 05:03:04;;;;;;;2.60;1.70;;;;;;;15.21;68.33;102905.53;5020157;28;20543;-84
2021/11/19 05:05:31;;;;;;;0.38;0.38;;;;;;;15.23;68.22;102905.50;5029310;28;20842;-85
2021/11/19 05:07:57;;;;;;;0.30;0.30;;;;;;;15.32;68.08;102902.78;5028370;28;20041;-84
2021/11/19 05:10:23;;;;;;;0.00;0.00;;;;;;;15.34;67.97;102901.00;5025547;28;20539;-84
2021/11/19 05:12:53;;;;;;;0.10;0.10;;;;;;;15.37;67.96;102898.28;5031221;28;20037;-84
2021/11/19 05:15:20;;;;;;;1.08;0.50;;;;;;;15.38;67.83;102902.75;5025416;28;20057;-84
2021/11/19 05:17:47;;;;;;;0.45;0.45;;;;;;;15.37;67.94;102900.97;5024021;28;20017;-84
2021/11/19 05:20:18;;;;;;;0.32;0.32;;;;;;;15.36;68.05;102888.50;5029984;28;20064;-85
2021/11/19 05:22:46;;;;;;;0.45;0.45;;;;;;;15.43;67.86;102892.03;5023363;28;20030;-84
2021/11/19 05:25:19;;;;;;;0.22;0.22;;;;;;;15.47;67.72;102896.44;5033625;28;20025;-85
2021/11/19 05:27:46;;;;;;;0.10;0.10;;;;;;;15.44;67.83;102907.16;5024498;28;20095;-84
2021/11/19 05:30:13;;;;;;;0.20;0.20;;;;;;;15.53;67.72;102912.44;5028504;28;20025;-84
2021/11/19 05:32:40;;;;;;;0.10;0.10;;;;;;;15.49;67.61;102902.69;5032423;28;20025;-84
2021/11/19 05:35:08;;;;;;;0.28;0.28;;;;;;;15.46;67.79;102900.88;5023778;28;20072;-84
2021/11/19 05:37:36;;;;;;;0.25;0.25;;;;;;;15.57;67.62;102902.63;5027077;28;20050;-84
2021/11/19 05:40:05;;;;;;;1.30;0.70;;;;;;;15.48;67.61;102903.56;5034429;28;20045;-85
2021/11/19 05:42:32;;;;;;;0.25;0.25;;;;;;;15.44;67.92;102905.38;5037396;28;20049;-84
2021/11/19 05:44:58;;;;;;;0.20;0.20;;;;;;;15.38;67.89;102897.41;5035850;28;20045;-84
2021/11/19 05:47:25;;;;;;;0.30;0.30;;;;;;;15.45;67.42;102898.22;5032598;28;20167;-85
2021/11/19 05:49:51;;;;;;;0.65;0.65;;;;;;;15.55;67.63;102899.06;5028530;28;20037;-84
2021/11/19 05:52:18;;;;;;;0.00;0.00;;;;;;;15.56;67.44;102904.38;5032345;28;20037;-84
2021/11/19 05:54:45;;;;;;;0.20;0.20;;;;;;;15.60;67.35;102905.25;5036737;28;20404;-84
2021/11/19 05:57:12;;;;;;;0.38;0.38;;;;;;;15.60;67.16;102906.16;5034575;28;20040;-84
2021/11/19 05:59:39;;;;;;;0.10;0.10;;;;;;;15.64;66.86;102907.00;5033667;28;20040;-84
2021/11/19 06:02:11;;;;;;;1.42;1.35;;;;;;;15.57;67.04;102914.19;5035644;28;20033;-84
2021/11/19 06:04:38;;;;;;;0.55;0.55;;;;;;;15.62;66.82;102911.47;5031673;28;20036;-85
2021/11/19 06:07:05;;;;;;;2.50;0.95;;;;;;;15.55;67.24;102912.41;5037097;28;20407;-84
2021/11/19 06:09:31;;;;;;;0.20;0.20;;;;;;;15.60;66.94;102910.59;5037281;28;20036;-84
2021/11/19 06:12:05;;;;;;;0.43;0.43;;;;;;;15.58;67.06;102917.75;5033423;28;20036;-84
2021/11/19 06:14:37;;;;;;;0.08;0.08;;;;;;;15.58;67.16;102909.72;5039259;28;20107;-83
2021/11/19 06:17:05;;;;;;;;;;;;;;;15.75;66.66;102914.91;5035885;28;20025;-84
2021/11/19 06:19:48;;;;;;;0.52;0.52;;;;;;;15.61;67.15;102915.03;5037244;28;19913;-84
2021/11/19 06:22:20;;;;;;;0.15;0.15;;;;;;;15.62;66.92;102917.69;5032498;28;20037;-84
2021/11/19 06:24:50;;;;;;;0.20;0.20;;;;;;;15.57;67.05;102913.31;5033270;28;20039;-84
2021/11/19 06:27:24;;;;;;;3.20;1.00;;;;;;;15.66;66.78;102907.88;5027426;28;20021;-84
2021/11/19 06:29:54;;;;;;;0.75;0.75;;;;;;;15.55;66.86;102915.97;5032331;28;20033;-84
2021/11/19 06:32:21;;;;;;;0.10;0.10;;;;;;;15.58;66.77;102915.94;5031838;28;20041;-84
2021/11/19 06:34:47;;;;;;;0.10;0.10;;;;;;;15.53;67.02;102915.97;5020668;28;20029;-85
2021/11/19 06:37:14;;;;;;;0.22;0.22;;;;;;;15.53;66.91;102921.31;5028074;28;20094;-84
2021/11/19 06:39:42;;;;;;;0.10;0.10;;;;;;;15.60;66.79;102923.94;5029797;28;20034;-84
2021/11/19 06:42:12;;;;;;;0.20;0.20;;;;;;;15.57;66.96;102929.34;5032328;28;20542;-85
2021/11/19 06:44:42;;;;;;;0.10;0.10;;;;;;;15.46;67.04;102921.38;5037575;28;20112;-84
2021/11/19 06:47:09;;;;;;;0.10;0.10;;;;;;;15.60;66.87;102923.94;5037072;28;20045;-86
2021/11/19 06:49:37;;;;;;;0.10;0.10;;;;;;;15.59;66.71;102924.84;5037324;28;20542;-84
2021/11/19 06:52:06;;;;;;;0.35;0.35;;;;;;;15.48;66.78;102936.50;5032011;28;20106;-84
2021/11/19 06:54:33;;;;;;;0.10;0.10;;;;;;;15.57;66.62;102935.53;5043521;28;20409;-83
2021/11/19 06:57:01;;;;;;;0.22;0.22;;;;;;;15.62;66.69;102938.19;5032829;28;20420;-84
2021/11/19 06:59:27;;;;;;;0.20;0.20;;;;;;;15.63;66.45;102937.31;5023220;28;20029;-83
2021/11/19 07:01:54;;;;;;;0.10;0.10;;;;;;;15.56;66.71;102948.94;5029389;28;20068;-84
2021/11/19 07:04:21;;;;;;;2.38;1.25;;;;;;;15.61;66.58;102947.09;5031998;28;20033;-85
2021/11/19 07:06:47;;;;;;;0.10;0.10;;;;;;;15.61;66.40;102949.78;5035207;28;20492;-84
2021/11/19 07:09:16;;;;;;;0.30;0.30;;;;;;;15.50;66.81;102949.84;5037809;28;20539;-84
2021/11/19 07:11:43;;;;;;;0.10;0.10;;;;;;;15.51;66.69;102947.19;5028389;28;20056;-84
2021/11/19 07:14:10;;;;;;;0.10;0.10;;;;;;;15.59;66.52;102949.78;5027648;28;20405;-84
2021/11/19 07:16:37;;;;;;;0.10;0.10;;;;;;;15.53;66.49;102961.41;5033535;28;20034;-84
2021/11/19 07:19:06;;;;;;;0.30;0.30;;;;;;;15.55;66.73;102963.19;5033958;28;20029;-85
2021/11/19 07:21:33;;;;;;;0.30;0.30;;;;;;;15.56;66.67;102959.63;5025441;28;20056;-84
2021/11/19 07:24:00;;;;;;;0.45;0.45;;;;;;;15.53;66.50;102961.41;5032139;28;20032;-83
2021/11/19 07:26:28;;;;;;;0.10;0.10;;;;;;;15.57;66.71;102956.03;5033674;28;20025;-83
2021/11/19 07:28:56;;;;;;;0.10;0.10;;;;;;;15.52;66.65;102964.97;5032155;28;20082;-84
2021/11/19 07:31:22;;;;;;;0.30;0.30;;;;;;;15.47;66.85;102960.56;5032763;28;20029;-84
2021/11/19 07:33:48;;;;;;;1.27;1.13;;;;;;;15.47;66.80;102961.44;5012847;28;20025;-87
2021/11/19 07:36:18;;;;;;;10.10;1.38;;;;;;;15.46;66.88;102975.69;5032438;28;20036;-84
2021/11/19 07:38:46;;;;;;;0.60;0.45;;;;;;;15.45;66.91;102975.72;5012177;28;20457;-84
2021/11/19 07:41:15;;;;;;;0.43;0.43;;;;;;;15.49;67.01;102978.34;5029873;28;20040;-84
2021/11/19 07:43:42;;;;;;;0.10;0.10;;;;;;;15.55;66.64;102979.22;5031318;28;20039;-84
2021/11/19 07:46:11;;;;;;;0.22;0.22;;;;;;;15.51;66.82;102984.59;5031201;28;20033;-86
2021/11/19 07:48:41;;;;;;;0.10;0.10;;;;;;;15.57;66.62;102988.09;5029070;28;20017;-86
2021/11/19 07:51:11;;;;;;;0.10;0.10;;;;;;;15.57;66.72;102993.47;5036423;28;20041;-89
2021/11/19 07:53:38;;;;;;;0.10;0.10;;;;;;;15.52;67.10;102981.00;5034643;28;20158;-84
2021/11/19 07:56:06;;;;;;;0.00;0.00;;;;;;;15.58;66.66;102990.75;5036435;28;20480;-85
2021/11/19 07:58:32;;;;;;;0.10;0.10;;;;;;;15.52;66.75;102991.69;5034675;28;20033;-85
2021/11/19 08:00:59;;;;;;;0.10;0.10;;;;;;;15.60;66.90;102993.41;5035503;28;20026;-85
2021/11/19 08:03:27;;;;;;;0.10;0.10;;;;;;;15.56;66.83;102994.34;5043891;28;20033;-83
2021/11/19 08:05:57;;;;;;;0.10;0.10;;;;;;;15.61;66.73;103000.53;5039324;28;20033;-85
2021/11/19 08:08:25;;;;;;;1.48;1.45;;;;;;;15.68;66.58;102996.94;5016367;28;20025;-84
2021/11/19 08:10:51;;;;;;;0.10;0.10;;;;;;;15.72;66.64;103004.03;5016259;28;20488;-86
2021/11/19 08:13:19;;;;;;;0.10;0.10;;;;;;;15.72;66.20;102997.81;5033410;28;20032;-87
2021/11/19 08:15:46;;;;;;;0.00;0.00;;;;;;;15.77;66.31;102995.97;5033300;28;20034;-84
2021/11/19 08:18:17;;;;;;;0.10;0.10;;;;;;;15.80;66.19;102993.28;5034153;28;20029;-84
2021/11/19 08:20:46;;;;;;;0.20;0.20;;;;;;;15.83;66.08;102996.84;5033654;28;20061;-83
2021/11/19 08:23:19;;;;;;;0.10;0.10;;;;;;;15.82;66.37;103000.41;5034495;28;20043;-84
2021/11/19 08:25:46;;;;;;;0.40;0.40;;;;;;;15.81;66.12;103001.31;5026981;28;20037;-83
2021/11/19 08:28:13;;;;;;;1.20;0.93;;;;;;;15.74;66.10;103004.00;5008016;28;20034;-81
2021/11/19 08:30:56;;;;;;;0.10;0.10;;;;;;;15.87;66.03;102995.03;5036563;28;20036;-83
2021/11/19 08:33:28;;;;;;;0.10;0.10;;;;;;;15.83;66.12;102994.19;5030704;28;20068;-83
2021/11/19 08:35:56;;;;;;;0.10;0.10;;;;;;;15.79;65.95;103005.75;5029157;28;20511;-82
2021/11/19 08:38:25;;;;;;;0.10;0.10;;;;;;;15.86;66.21;102993.25;5037241;28;20180;-82
2021/11/19 08:40:52;;;;;;;2.30;0.63;;;;;;;15.91;65.99;102994.09;5035220;28;20037;-82
2021/11/19 08:43:23;;;;;;;0.10;0.10;;;;;;;15.90;65.85;102999.47;5039181;28;20041;-82
2021/11/19 08:45:53;;;;;;;0.38;0.38;;;;;;;15.87;65.91;103007.53;5033515;28;20481;-82
2021/11/19 08:48:21;;;;;;;0.10;0.10;;;;;;;15.89;65.75;103011.06;5033692;28;20369;-83
2021/11/19 08:50:48;;;;;;;0.28;0.28;;;;;;;15.88;65.63;103010.19;5033907;28;20030;-82
2021/11/19 08:53:16;;;;;;;0.10;0.10;;;;;;;15.85;65.71;103016.44;5032926;28;20032;-82
2021/11/19 08:55:45;;;;;;;0.10;0.10;;;;;;;15.99;65.83;103010.97;5032840;28;20057;-83
2021/11/19 08:58:18;;;;;;;0.13;0.13;;;;;;;15.97;65.38;103006.56;5033105;28;20086;-82
2021/11/19 09:00:46;;;;;;;0.55;0.55;;;;;;;16.03;65.37;103009.19;5033778;28;20444;-82
2021/11/19 09:03:13;;;;;;;0.20;0.20;;;;;;;16.06;65.46;103011.81;5032370;28;20037;-81
2021/11/19 09:05:42;;;;;;;0.20;0.20;;;;;;;16.05;65.24;103011.84;5033349;28;20388;-82
2021/11/19 09:08:13;;;;;;;0.38;0.38;;;;;;;16.13;65.26;103018.88;5032412;28;20468;-81
2021/11/19 09:10:39;;;;;;;0.10;0.10;;;;;;;16.10;64.84;103016.25;5034154;28;20108;-82
2021/11/19 09:13:08;;;;;;;1.45;0.85;;;;;;;16.17;65.02;103009.97;5032722;28;20026;-81
2021/11/19 09:15:37;;;;;;;0.20;0.20;;;;;;;16.14;64.93;103020.66;5029782;28;20029;-83
2021/11/19 09:24:13;;;;;;;0.50;0.50;;;;;;;16.18;64.82;103014.38;5104522;27;20550;-82
2021/11/19 09:26:47;;;;;;;0.88;0.88;;;;;;;16.12;64.60;103013.56;5044903;28;1245677;-83
2021/11/19 09:29:20;;;;;;;0.20;0.20;;;;;;;16.05;64.91;103010.06;5068451;28;20112;-83
2021/11/19 09:31:47;;;;;;;4.10;0.85;;;;;;;15.96;64.94;103012.78;5067865;28;20028;-82
2021/11/19 09:34:17;;;;;;;0.20;0.20;;;;;;;15.97;64.97;103019.91;5069880;28;20046;-83
2021/11/19 09:36:44;;;;;;;2.40;1.23;;;;;;;15.85;65.04;103016.44;5067374;28;20384;-82
2021/11/19 09:39:13;;;;;;;0.20;0.20;;;;;;;15.96;65.04;103018.13;5066696;28;20497;-83
2021/11/19 09:41:53;;;;;;;0.38;0.38;;;;;;;15.99;64.69;103023.47;5067258;28;20058;-83
2021/11/19 09:47:29;;;;;;;0.20;0.20;;;;;;;15.88;64.52;103012.84;5071328;27;20410;-82
2021/11/19 09:50:29;;;;;;;0.10;0.10;;;;;;;15.89;64.38;103027.09;5043208;28;20850;-82
2021/11/19 09:58:53;;;;;;;0.22;0.22;;;;;;;15.83;64.70;103034.28;5072117;27;20238;-83
2021/11/19 10:01:45;;;;;;;0.57;0.57;;;;;;;15.76;64.65;103029.81;5055550;28;20068;-83
2021/11/19 10:04:51;;;;;;;0.57;0.57;;;;;;;15.79;64.28;103027.16;5053610;28;20167;-81
2021/11/19 10:19:06;;;;;;;7.88;2.38;;;;;;;16.11;64.10;103034.09;5045935;28;20400;-84
2021/11/19 10:22:00;;;;;;;0.75;0.75;;;;;;;16.10;63.64;103032.31;5039317;28;20041;-83
2021/11/19 10:27:51;;;;;;;0.10;0.10;;;;;;;16.04;63.65;103024.31;4980171;28;2308320;-84
2021/11/19 10:30:37;;;;;;;0.47;0.47;;;;;;;15.99;63.76;103023.47;5042397;28;20036;-84
2021/11/19 10:39:26;;;;;;;0.75;0.75;;;;;;;16.23;63.16;103026.84;5063459;28;20436;-82
2021/11/19 10:44:59;;;;;;;0.10;0.10;;;;;;;16.48;63.01;103014.13;5074029;27;20829;-83
2021/11/19 10:47:52;;;;;;;0.10;0.10;;;;;;;16.49;62.35;103019.44;5058276;28;20030;-83
2021/11/19 10:50:58;;;;;;;1.35;0.55;;;;;;;16.58;62.08;103012.25;5051623;28;20066;-83
2021/11/19 10:54:05;;;;;;;0.10;0.10;;;;;;;16.59;61.61;103020.25;5047043;28;20563;-83
2021/11/19 10:56:46;;;;;;;0.10;0.10;;;;;;;16.72;61.62;103026.34;5053425;28;20428;-83
2021/11/19 11:10:27;;;;;;;0.55;0.55;;;;;;;17.04;60.42;103022.44;5074927;27;20423;-83
2021/11/19 11:12:54;;;;;;;1.05;1.05;;;;;;;17.10;60.11;103021.50;5025300;28;20040;-84
2021/11/19 11:32:28;;;;;;;0.10;0.10;;;;;;;17.40;58.15;103012.16;5061033;27;20429;-83
2021/11/19 11:35:18;;;;;;;0.10;0.10;;;;;;;17.35;57.76;103014.00;5054925;28;20099;-83
2021/11/19 11:41:15;;;;;;;0.50;0.50;;;;;;;17.57;58.04;103011.91;5076880;27;20447;-83
2021/11/19 11:44:03;;;;;;;0.10;0.10;;;;;;;17.57;57.52;103005.66;5058765;28;20091;-83
2021/11/19 11:46:59;;;;;;;0.10;0.10;;;;;;;17.54;57.71;103017.31;5055610;28;20025;-83
2021/11/19 11:49:44;;;;;;;0.10;0.10;;;;;;;17.54;58.05;103013.75;5039372;28;20034;-83
2021/11/19 11:58:33;;;;;;;0.10;0.10;;;;;;;17.77;57.28;103018.78;5052865;28;21016;-83
2021/11/19 12:01:15;;;;;;;0.10;0.10;;;;;;;17.87;57.24;103019.50;5040337;28;20112;-83
2021/11/19 12:03:50;;;;;;;0.20;0.20;;;;;;;17.78;57.03;103005.34;5050394;28;20029;-84
2021/11/19 12:12:17;;;;;;;0.28;0.28;;;;;;;17.78;55.38;103012.47;5073310;28;21856;-83
2021/11/19 12:14:50;;;;;;;0.00;0.00;;;;;;;17.66;55.32;103021.63;5060697;28;20495;-83
2021/11/19 12:20:32;;;;;;;0.10;0.10;;;;;;;17.66;55.37;103010.88;5059259;27;20410;-84
2021/11/19 12:23:38;;;;;;;0.10;0.10;;;;;;;17.72;54.99;103009.88;5050873;28;20117;-86
2021/11/19 12:28:47;;;;;;;0.10;0.10;;;;;;;17.60;54.96;103014.53;5070159;27;20438;-86
2021/11/19 12:34:16;;;;;;;0.22;0.22;;;;;;;17.68;54.86;103011.72;5071564;28;20435;-85
2021/11/19 12:36:51;;;;;;;1.48;1.48;;;;;;;17.52;54.81;103003.06;5054947;28;20040;-80
2021/11/19 12:39:18;;;;;;;0.10;0.10;;;;;;;17.53;54.86;102996.75;5065399;28;20507;-83
2021/11/19 12:41:55;;;;;;;1.08;0.45;;;;;;;17.53;55.09;103010.16;5064872;28;20059;-83
2021/11/19 12:45:02;;;;;;;0.00;0.00;;;;;;;17.61;54.70;102997.53;5060667;28;20108;-81
2021/11/19 12:48:08;;;;;;;0.10;0.10;;;;;;;17.64;54.85;103001.97;5106815;22;20045;-96
2021/11/19 12:50:47;;;;;;;0.10;0.10;;;;;;;17.54;54.38;103000.34;5075760;28;20052;-96
2021/11/19 12:56:16;;;;;;;0.22;0.22;;;;;;;17.44;54.52;103019.22;5036412;28;20435;-93
2021/11/19 12:58:48;;;;;;;0.10;0.10;;;;;;;17.50;54.49;102991.47;5014706;28;20037;-85
2021/11/19 13:09:50;;;;;;;0.75;0.75;;;;;;;17.43;54.70;102993.38;5105713;27;20506;-93
2021/11/19 13:15:24;;;;;;;0.10;0.10;;;;;;;17.53;54.37;102994.09;5039133;28;20439;-91
2021/11/19 13:18:00;;;;;;;0.10;0.10;;;;;;;17.41;54.40;102992.47;5011558;28;20057;-88
2021/11/19 13:34:23;;;;;;;0.10;0.10;;;;;;;17.24;55.03;102989.16;5183727;22;25566437;-93
2021/11/19 13:39:58;;;;;;;0.10;0.10;;;;;;;17.21;55.42;102981.16;6274684;22;20050;-94
2021/11/19 13:43:01;;;;;;;0.10;0.10;;;;;;;17.17;55.56;102968.72;6267360;22;20022;-93
2021/11/19 13:45:54;;;;;;;0.10;0.10;;;;;;;17.21;55.49;102971.34;6283081;22;20015;-93
2021/11/19 13:48:52;;;;;;;0.20;0.20;;;;;;;17.26;55.32;102979.31;6279913;22;20090;-90
2021/11/19 14:08:00;;;;;;;0.10;0.10;;;;;;;17.65;53.99;102976.94;5050659;27;20489;-89
2021/11/19 14:13:36;;;;;;;0.30;0.30;;;;;;;17.51;54.00;102976.25;5071544;27;20892;-94
2021/11/19 14:16:09;;;;;;;0.20;0.20;;;;;;;17.48;53.89;102976.31;5070103;28;20108;-91
2021/11/19 14:19:11;;;;;;;0.25;0.25;;;;;;;17.45;54.15;102975.44;5061340;28;20547;-83
2021/11/19 14:22:01;;;;;;;0.10;0.10;;;;;;;17.43;54.02;102987.09;5052642;28;20488;-92
2021/11/19 14:46:09;;;;;;;0.10;0.10;;;;;;;17.02;54.49;102976.03;5118178;27;20448;-96